Jj Sky — VRJA6 — position and weather

sailwx.info

Track history (hours):
 
Tides and Currents Weather Stations Pressure Air Temp Water Temp Dewpoint Dewpoint Depression Visibility Wind Speed Wind Dir Waves Ship Positions

Jj Sky

Last reported at 2016-Dec-09 16:16 UTC. Time now 2016-Dec-10 16:36 UTC.
Position N 31°17' E 121°50'.

Length 148 m; draft 7.3 m.

Type: Ship (hazmat cat D). MMSI: 477397500.

Date/timePositionNaut miles runAvg speedWind from/ knotsBaromVisibWave heightAir tempDewpointWater temp
2016-Dec-09 16:16N 31°17' E 121°50'9 0.7
2016-Dec-09 03:28N 31°20' E 121°40'3 2.9
2016-Dec-09 02:30N 31°19' E 121°44'  
2016-Dec-06 05:06N 34°33' E 134°47'915.8
2016-Dec-06 04:32N 34°37' E 134°57'1414.7
2016-Dec-06 03:33N 34°37' E 135°14'2 2.0
2016-Dec-06 02:20N 34°39' E 135°15'0 0.0
2016-Dec-06 01:23N 34°39' E 135°15'0 0.1
2016-Dec-06 00:28N 34°39' E 135°14'0 0.1
2016-Dec-05 23:34N 34°39' E 135°15'3 1.6
2016-Dec-05 21:33N 34°38' E 135°18'5 1.2
2016-Dec-05 17:18N 34°39' E 135°24'0 0.0
2016-Dec-05 16:24N 34°39' E 135°24'0 0.1
2016-Dec-05 15:29N 34°39' E 135°24'0 0.1
2016-Dec-05 14:11N 34°39' E 135°24'0 0.0
2016-Dec-05 13:28N 34°39' E 135°24'0 0.0
2016-Dec-05 10:09N 34°39' E 135°24'0 0.0
2016-Dec-05 09:21N 34°39' E 135°24'0 0.0
2016-Dec-05 08:32N 34°39' E 135°24'0 0.1
2016-Dec-05 07:14N 34°39' E 135°24'0 0.0
2016-Dec-05 06:26N 34°39' E 135°24'0 0.0
2016-Dec-05 05:30N 34°39' E 135°24'0 0.1
2016-Dec-05 04:13N 34°39' E 135°24'0 0.0
2016-Dec-05 03:30N 34°39' E 135°24'0 0.0
2016-Dec-05 02:29N 34°39' E 135°24'0 0.0
2016-Dec-05 01:23N 34°39' E 135°24'0 0.0
2016-Dec-04 23:28N 34°39' E 135°24'0 0.0
2016-Dec-04 22:16N 34°39' E 135°24'4 5.4
2016-Dec-04 21:33N 34°36' E 135°21'1010.1
2016-Dec-04 20:34N 34°35' E 135°09'1110.5
2016-Dec-04 19:33N 34°36' E 134°56'  
2016-Dec-02 15:23N 31°17' E 121°45'5 0.5
2016-Dec-02 04:30N 31°20' E 121°40'1 0.8
2016-Dec-02 03:33N 31°21' E 121°40'  
Track history (hours):
 
Tides and Currents Weather Stations Pressure Air Temp Water Temp Dewpoint Dewpoint Depression Visibility Wind Speed Wind Dir Waves Ship Positions

Jj Sky

Last reported at 2016-Dec-09 16:16 UTC. Time now 2016-Dec-10 16:36 UTC.
Position N 31°17' E 121°50'.

Length 148 m; draft 7.3 m.

Type: Ship (hazmat cat D). MMSI: 477397500.

Date/timePositionNaut miles runAvg speedWind from/ knotsBaromVisibWave heightAir tempDewpointWater temp
2016-Dec-09 16:16N 31°17' E 121°50'9 0.7
2016-Dec-09 03:28N 31°20' E 121°40'3 2.9
2016-Dec-09 02:30N 31°19' E 121°44'  
2016-Dec-06 05:06N 34°33' E 134°47'915.8
2016-Dec-06 04:32N 34°37' E 134°57'1414.7
2016-Dec-06 03:33N 34°37' E 135°14'2 2.0
2016-Dec-06 02:20N 34°39' E 135°15'0 0.0
2016-Dec-06 01:23N 34°39' E 135°15'0 0.1
2016-Dec-06 00:28N 34°39' E 135°14'0 0.1
2016-Dec-05 23:34N 34°39' E 135°15'3 1.6
2016-Dec-05 21:33N 34°38' E 135°18'5 1.2
2016-Dec-05 17:18N 34°39' E 135°24'0 0.0
2016-Dec-05 16:24N 34°39' E 135°24'0 0.1
2016-Dec-05 15:29N 34°39' E 135°24'0 0.1
2016-Dec-05 14:11N 34°39' E 135°24'0 0.0
2016-Dec-05 13:28N 34°39' E 135°24'0 0.0
2016-Dec-05 10:09N 34°39' E 135°24'0 0.0
2016-Dec-05 09:21N 34°39' E 135°24'0 0.0
2016-Dec-05 08:32N 34°39' E 135°24'0 0.1
2016-Dec-05 07:14N 34°39' E 135°24'0 0.0
2016-Dec-05 06:26N 34°39' E 135°24'0 0.0
2016-Dec-05 05:30N 34°39' E 135°24'0 0.1
2016-Dec-05 04:13N 34°39' E 135°24'0 0.0
2016-Dec-05 03:30N 34°39' E 135°24'0 0.0
2016-Dec-05 02:29N 34°39' E 135°24'0 0.0
2016-Dec-05 01:23N 34°39' E 135°24'0 0.0
2016-Dec-04 23:28N 34°39' E 135°24'0 0.0
2016-Dec-04 22:16N 34°39' E 135°24'4 5.4
2016-Dec-04 21:33N 34°36' E 135°21'1010.1
2016-Dec-04 20:34N 34°35' E 135°09'1110.5
2016-Dec-04 19:33N 34°36' E 134°56'  
2016-Dec-02 15:23N 31°17' E 121°45'5 0.5
2016-Dec-02 04:30N 31°20' E 121°40'1 0.8
2016-Dec-02 03:33N 31°21' E 121°40'  

Dump ship's entire track history